aviador You're here:

KSFF Decoded Metar

SPOKANE in WA, USA
Report Time2018-05-20 22:53:00
UTC Time2018-05-20 23:08:51
Flight Rules vfr VFR
Wind270° at 07 kt
W.Decomp.*RWY 22: 5.8 kt HW 3.9 kt RCW
W.Rank270° ranks 15
Current wind is above 270° avg. (5.5)
Visibility9999 m
Phenomena:N/A
Clouds:Scattered 070 Hf
Expected CloudBase > 6,800 ft AGL from Temp-Dew spread
CeilingNone
Temp24°C (ISA +13)
Dew Point07°C (34% RH)
AAT20.8°C
QNH1012 hPa
Density Alt3,668 ft
Elevation1,998 ft
Report Wrong Elevation
Raw Report
KSFF 202253Z 27007KT 10SM SCT070 24/07 A2987 RMK AO2 SLP107
T02440072=

Extra information for KSFF:More info

Metar Taf Metar & Taf Last 4 Metars F.Rules Stats Wind Profile Meteogram Temp Stats Airport Information Weather charts Add Link Nearby VenuesMetar ALERT Operation Metar Decoded Social comments

AIRNAV info for KSFF